West Point, VA

3:17 PM EDT on July 28, 2016 (GMT -0400)
West Point | | Change Station
Active Advisory: Heat Advisory

Elev 23 ft 37.52 °N, 76.76 °W | Updated 22 minutes ago

Scattered Clouds
Scattered Clouds
93 °F
Feels Like 104 °F
N
8
Wind Variable Wind from South

Today
High -- | Low -- °F
--% Chance of Precip.
Yesterday
High -- | Low -- °F
Precip. -- in
Pressure 29.85 in
Visibility 10.0 miles
Clouds Scattered Clouds 3600 ft
Heat Index 104 °F
Dew Point 75 °F
Humidity 55%
Rainfall 0.00 in
Snow Depth Not available.
6:08 AM 8:18 PM
Waning Crescent, 29% visible
METAR KFYJ 281855Z AUTO 18007KT 10SM SCT036 34/24 A2985 RMK AO2 T03400239
Pressure 29.85 in
Visibility 10.0 miles
Clouds Scattered Clouds 3600 ft
Heat Index 104 °F
Dew Point 75 °F
Humidity 55%
Rainfall 0.00 in
Snow Depth Not available.
6:08 AM 8:18 PM
Waning Crescent, 29% visible
METAR KFYJ 281855Z AUTO 18007KT 10SM SCT036 34/24 A2985 RMK AO2 T03400239

10-Day Weather Forecast

Almanac

Astronomy

Jul. 28, 2016 Rise Set
Actual Time
Civil Twilight
Nautical Twilight
Astronomical Twilight
Moon
Length of Visible Light
Length of Day
Tomorrow will be .
, % of the Moon is Illuminated

Today's Extremes

State Highs State Lows

Community

WunderPhotos

Upload Photos

1,928,188 photos uploaded!

WunderBlog® & News

Nearby

Air Quality

  Air Quality AQ Index Pollutant
Not available.

Snow Depth

Station Depth Elevation

Earthquake Activity

City Distance Mag. Time & Date
Minimum magnitude displayed is 2.5.

Coastal Water Temperatures

Place Temperature

Stations

Nearby Weather Stations

Station Location Temp. Windchill Dew Point Humidity Wind Precip. Elev Updated Type
                   

Watches & Warnings

Heat Advisory
Issued: 11:24 AM EDT Jul. 28, 2016 – National Weather Service

... Heat advisory remains in effect until 8 PM EDT this evening...

* heat index values: 105 to 110.

* Impacts: prolonged exposure or any strenuous activity may lead
to heat related illnesses that require immediate medical
attention.

Precautionary/preparedness actions...

A heat advisory means that a period of hot temperatures is
expected. The combination of hot temperatures and high humidity
will combine to create a situation in which heat illnesses are
possible. Drink plenty of fluids... stay in an air-conditioned
room... stay in the shade if possible... and check up on relatives
and neighbors.

Take extra precautions if you work or spend time outside. When
possible... reschedule strenuous activities to early morning or
evening. Know the signs and symptoms of heat exhaustion and heat
stroke. Wear light weight and loose fitting clothing when
possible and drink plenty of water.

To reduce risk during outdoor work... the occupational safety and
health administration recommends scheduling frequent rest breaks
in shaded or air conditioned environments. Anyone overcome by
heat should be moved to a cool and shaded location. Heat stroke
is an emergency - call 9 1 1.